Time;durP1;ratioP1;P1;durP2;ratioP2;P2;SDS_P1;SDS_P2;PMS_P1;PMS_P2;Temp;Humidity;BMP_temperature;BMP_pressure;BME280_temperature;BME280_humidity;BME280_pressure;Samples;Min_cycle;Max_cycle;Signal;HPM_P1;HPM_P2
2022/03/08 00:02:22;;;;;;;4.70;1.63;;;6.20;99.90;;;;;;4993641;28;20038;-71
2022/03/08 00:04:48;;;;;;;0.55;0.55;;;6.20;99.90;;;;;;4993416;28;20087;-71
2022/03/08 00:07:14;;;;;;;0.90;0.88;;;6.20;99.90;;;;;;4994027;28;20026;-73
2022/03/08 00:09:40;;;;;;;2.25;1.45;;;6.30;99.90;;;;;;4993298;28;20026;-73
2022/03/08 00:12:07;;;;;;;3.13;1.75;;;6.30;99.90;;;;;;4993514;28;20026;-72
2022/03/08 00:14:34;;;;;;;1.58;1.48;;;6.30;99.90;;;;;;4993361;28;20030;-72
2022/03/08 00:17:00;;;;;;;3.58;0.80;;;6.30;99.90;;;;;;4989656;28;20486;-71
2022/03/08 00:19:26;;;;;;;2.05;1.30;;;6.30;99.90;;;;;;4974125;28;20110;-72
2022/03/08 00:21:52;;;;;;;9.20;2.05;;;6.40;99.90;;;;;;4974240;28;20594;-73
2022/03/08 00:24:18;;;;;;;2.08;0.75;;;6.40;99.90;;;;;;4974016;28;20022;-72
2022/03/08 00:26:44;;;;;;;0.90;0.70;;;6.30;99.90;;;;;;4973607;28;20117;-71
2022/03/08 00:29:10;;;;;;;0.38;0.30;;;6.30;99.90;;;;;;4973857;28;20075;-73
2022/03/08 00:31:37;;;;;;;1.25;1.08;;;6.30;99.90;;;;;;4974034;28;20023;-73
2022/03/08 00:34:04;;;;;;;0.85;0.65;;;6.30;99.90;;;;;;4973816;28;20027;-73
2022/03/08 00:36:30;;;;;;;0.40;0.40;;;6.30;99.90;;;;;;4973892;28;20019;-71
2022/03/08 00:38:56;;;;;;;1.50;1.40;;;6.30;99.90;;;;;;4973697;28;20079;-71
2022/03/08 00:41:22;;;;;;;0.68;0.68;;;6.20;99.90;;;;;;4973895;28;20023;-71
2022/03/08 00:43:49;;;;;;;1.05;0.93;;;6.30;99.90;;;;;;4973742;28;20039;-73
2022/03/08 00:46:18;;;;;;;3.60;0.85;;;6.20;99.90;;;;;;4973875;28;20037;-73
2022/03/08 00:48:44;;;;;;;0.80;0.80;;;6.20;99.90;;;;;;4973828;28;20023;-73
2022/03/08 00:51:10;;;;;;;0.43;0.43;;;6.20;99.90;;;;;;4990048;28;20504;-72
2022/03/08 00:53:36;;;;;;;1.90;1.08;;;6.20;99.90;;;;;;4992749;28;20021;-72
2022/03/08 00:56:02;;;;;;;7.80;1.45;;;6.20;99.90;;;;;;4996472;28;20030;-72
2022/03/08 00:58:27;;;;;;;1.67;1.15;;;6.20;99.90;;;;;;4997079;28;20037;-71
2022/03/08 01:00:53;;;;;;;5.78;0.65;;;6.20;99.90;;;;;;4996165;28;20513;-73
2022/03/08 01:03:19;;;;;;;0.50;0.50;;;6.20;99.90;;;;;;4996957;28;20033;-71
2022/03/08 01:05:44;;;;;;;0.30;0.30;;;6.20;99.90;;;;;;4996880;28;20019;-71
2022/03/08 01:08:10;;;;;;;2.33;1.33;;;6.20;99.90;;;;;;4996956;28;20030;-72
2022/03/08 01:10:36;;;;;;;1.13;1.02;;;6.20;99.90;;;;;;4996545;28;20481;-73
2022/03/08 01:13:03;;;;;;;0.68;0.65;;;6.30;99.90;;;;;;4996023;28;20025;-73
2022/03/08 01:15:29;;;;;;;0.88;0.82;;;6.30;99.90;;;;;;4996549;28;20033;-72
2022/03/08 01:17:55;;;;;;;2.30;1.20;;;6.30;99.90;;;;;;4994699;28;20026;-71
2022/03/08 01:20:21;;;;;;;1.05;1.05;;;6.30;99.90;;;;;;4996778;28;20030;-73
2022/03/08 01:22:47;;;;;;;2.58;1.02;;;6.30;99.90;;;;;;4996702;28;20102;-73
2022/03/08 01:25:15;;;;;;;0.45;0.45;;;6.30;99.90;;;;;;4996312;28;20114;-72
2022/03/08 01:27:41;;;;;;;1.33;1.23;;;6.20;99.90;;;;;;4996307;28;20089;-72
2022/03/08 01:30:10;;;;;;;2.03;1.75;;;6.20;99.90;;;;;;4996414;28;20438;-72
2022/03/08 01:32:36;;;;;;;2.67;1.23;;;6.20;99.90;;;;;;4996331;28;20030;-71
2022/03/08 01:35:02;;;;;;;1.73;1.33;;;6.20;99.90;;;;;;4995903;28;20038;-73
2022/03/08 01:37:27;;;;;;;0.50;0.50;;;6.20;99.90;;;;;;4996226;28;20034;-73
2022/03/08 01:39:53;;;;;;;10.52;3.60;;;6.20;99.90;;;;;;4995987;28;20118;-73
2022/03/08 01:42:22;;;;;;;0.47;0.47;;;6.10;99.90;;;;;;4996303;28;20071;-71
2022/03/08 01:44:48;;;;;;;0.82;0.82;;;6.20;99.90;;;;;;4996100;28;20505;-73
2022/03/08 01:47:16;;;;;;;0.28;0.28;;;6.20;99.90;;;;;;4996139;28;20050;-73
2022/03/08 01:49:43;;;;;;;0.08;0.08;;;6.30;99.90;;;;;;4995688;28;20161;-73
2022/03/08 01:52:10;;;;;;;0.22;0.22;;;6.30;99.90;;;;;;4995856;28;20030;-73
2022/03/08 01:54:36;;;;;;;0.63;0.63;;;6.40;99.90;;;;;;4995701;28;20029;-71
2022/03/08 01:57:03;;;;;;;0.38;0.38;;;6.50;99.90;;;;;;4995554;28;20444;-72
2022/03/08 01:59:29;;;;;;;0.90;0.90;;;6.60;99.90;;;;;;5011159;28;20077;-72
2022/03/08 02:01:55;;;;;;;3.33;1.77;;;6.60;99.90;;;;;;4995690;28;20041;-71
2022/03/08 02:04:20;;;;;;;0.38;0.38;;;6.70;99.90;;;;;;4995676;28;20036;-74
2022/03/08 02:06:47;;;;;;;1.27;1.23;;;6.60;99.90;;;;;;4994608;28;20022;-71
2022/03/08 02:09:13;;;;;;;1.10;1.10;;;6.70;99.90;;;;;;4995634;28;20019;-70
2022/03/08 02:11:41;;;;;;;0.73;0.15;;;6.60;99.90;;;;;;4994807;28;20030;-71
2022/03/08 02:14:06;;;;;;;3.30;1.65;;;6.60;99.90;;;;;;4995672;28;20011;-71
2022/03/08 02:16:32;;;;;;;0.98;0.82;;;6.60;99.90;;;;;;4995038;28;20390;-73
2022/03/08 02:18:58;;;;;;;1.83;1.73;;;6.50;99.90;;;;;;4995629;28;20434;-73
2022/03/08 02:21:24;;;;;;;1.30;0.43;;;6.40;99.90;;;;;;4995478;28;20031;-71
2022/03/08 02:23:49;;;;;;;1.00;0.45;;;6.40;99.90;;;;;;4995131;28;20026;-71
2022/03/08 02:26:15;;;;;;;1.08;1.05;;;6.40;99.90;;;;;;4995501;28;20129;-71
2022/03/08 02:28:41;;;;;;;1.95;1.10;;;6.50;99.90;;;;;;4994949;28;20027;-73
2022/03/08 02:31:07;;;;;;;1.55;1.17;;;6.50;99.90;;;;;;4995617;28;20029;-71
2022/03/08 02:33:33;;;;;;;0.68;0.55;;;6.50;99.90;;;;;;4995297;28;20022;-71
2022/03/08 02:35:59;;;;;;;0.52;0.52;;;6.50;99.90;;;;;;4995191;28;20034;-71
2022/03/08 02:38:24;;;;;;;0.55;0.55;;;6.50;99.90;;;;;;4995037;28;20026;-73
2022/03/08 02:40:50;;;;;;;2.72;1.75;;;6.50;99.90;;;;;;4994925;28;20395;-71
2022/03/08 02:43:16;;;;;;;0.88;0.80;;;6.50;99.90;;;;;;4995048;28;20430;-73
2022/03/08 02:45:42;;;;;;;0.15;0.15;;;6.50;99.90;;;;;;4994187;28;20049;-74
2022/03/08 02:48:09;;;;;;;0.55;0.55;;;6.50;99.90;;;;;;4994964;28;20022;-72
2022/03/08 02:50:35;;;;;;;0.35;0.35;;;6.50;99.90;;;;;;4994532;28;20498;-71
2022/03/08 02:53:02;;;;;;;0.25;0.25;;;6.50;99.90;;;;;;4994733;28;20019;-71
2022/03/08 02:55:32;;;;;;;1.52;1.42;;;6.50;99.90;;;;;;4994717;28;20034;-73
2022/03/08 02:57:58;;;;;;;0.75;0.68;;;6.50;99.90;;;;;;4994671;28;20425;-73
2022/03/08 03:00:26;;;;;;;0.30;0.30;;;6.50;99.90;;;;;;4994627;28;20023;-73
2022/03/08 03:02:52;;;;;;;0.00;0.00;;;6.50;99.90;;;;;;4994761;28;20030;-72
2022/03/08 03:05:18;;;;;;;0.95;0.95;;;6.50;99.90;;;;;;4994496;28;20034;-73
2022/03/08 03:07:44;;;;;;;1.70;0.38;;;6.50;99.90;;;;;;4994526;28;20022;-73
2022/03/08 03:10:17;;;;;;;0.50;0.50;;;6.50;99.90;;;;;;4992846;28;20037;-72
2022/03/08 03:12:43;;;;;;;2.63;1.40;;;6.50;99.90;;;;;;4994473;28;20023;-72
2022/03/08 03:15:11;;;;;;;0.88;0.85;;;6.50;99.90;;;;;;4994526;28;20030;-71
2022/03/08 03:17:37;;;;;;;1.48;1.38;;;6.50;99.90;;;;;;4984842;28;20038;-73
2022/03/08 03:20:05;;;;;;;0.43;0.43;;;6.40;99.90;;;;;;4974638;28;20042;-72
2022/03/08 03:22:31;;;;;;;0.95;0.95;;;6.40;99.90;;;;;;4975124;28;20536;-71
2022/03/08 03:24:56;;;;;;;0.65;0.63;;;6.40;99.90;;;;;;4974455;28;20121;-71
2022/03/08 03:27:22;;;;;;;0.32;0.32;;;6.30;99.90;;;;;;4974663;28;20046;-72
2022/03/08 03:29:48;;;;;;;2.00;1.48;;;6.20;99.90;;;;;;4974852;28;20026;-71
2022/03/08 03:32:14;;;;;;;0.32;0.32;;;6.20;99.90;;;;;;4974826;28;20482;-71
2022/03/08 03:34:39;;;;;;;0.30;0.30;;;6.20;99.90;;;;;;4974974;28;20039;-71
2022/03/08 03:37:05;;;;;;;1.52;1.25;;;6.20;99.90;;;;;;4974401;28;20098;-72
2022/03/08 03:39:32;;;;;;;1.10;0.52;;;6.20;99.90;;;;;;4974722;28;20066;-73
2022/03/08 03:41:58;;;;;;;0.28;0.28;;;6.20;99.90;;;;;;4975100;28;20062;-73
2022/03/08 03:44:24;;;;;;;0.00;0.00;;;6.20;99.90;;;;;;4974535;28;20074;-73
2022/03/08 03:46:49;;;;;;;0.38;0.38;;;6.10;99.90;;;;;;4974673;28;20603;-73
2022/03/08 03:49:15;;;;;;;0.68;0.68;;;6.20;99.90;;;;;;4976043;28;20026;-74
2022/03/08 03:51:41;;;;;;;1.85;0.80;;;6.20;99.90;;;;;;4993389;28;20081;-73
2022/03/08 03:54:07;;;;;;;0.40;0.40;;;6.20;99.90;;;;;;4993663;28;20025;-71
2022/03/08 03:56:33;;;;;;;1.45;0.60;;;6.20;99.90;;;;;;4993162;28;20023;-71
2022/03/08 03:58:59;;;;;;;1.65;1.15;;;6.20;99.90;;;;;;4993217;28;20106;-71
2022/03/08 04:01:25;;;;;;;1.15;1.13;;;6.20;99.90;;;;;;4993616;28;20406;-74
2022/03/08 04:03:50;;;;;;;0.20;0.20;;;6.20;99.90;;;;;;4993591;28;20030;-71
2022/03/08 04:06:16;;;;;;;0.63;0.63;;;6.30;99.90;;;;;;4994139;28;20022;-72
2022/03/08 04:08:41;;;;;;;0.68;0.68;;;6.30;99.90;;;;;;4993398;28;20058;-71
2022/03/08 04:11:07;;;;;;;1.48;1.27;;;6.40;99.90;;;;;;4993913;28;20082;-73
2022/03/08 04:13:33;;;;;;;1.52;1.42;;;6.40;99.90;;;;;;4992709;28;20030;-71
2022/03/08 04:15:58;;;;;;;0.77;0.63;;;6.50;99.90;;;;;;4993442;28;20034;-73
2022/03/08 04:18:24;;;;;;;0.68;0.68;;;6.50;99.90;;;;;;4993084;28;20026;-73
2022/03/08 04:20:50;;;;;;;1.75;0.85;;;6.50;99.90;;;;;;4993641;28;20453;-71
2022/03/08 04:23:15;;;;;;;0.40;0.40;;;6.60;99.90;;;;;;4993656;28;20054;-73
2022/03/08 04:25:41;;;;;;;0.40;0.40;;;6.60;99.90;;;;;;4993213;28;20523;-74
2022/03/08 04:28:07;;;;;;;0.30;0.30;;;6.60;99.90;;;;;;4993237;28;20037;-71
2022/03/08 04:30:33;;;;;;;0.52;0.52;;;6.70;99.90;;;;;;4996112;28;20030;-71
2022/03/08 04:32:59;;;;;;;0.43;0.43;;;6.70;99.90;;;;;;4997492;28;20030;-71
2022/03/08 04:35:25;;;;;;;0.50;0.50;;;6.70;99.90;;;;;;4997313;28;20033;-74
2022/03/08 04:37:51;;;;;;;0.57;0.57;;;6.60;99.90;;;;;;4997480;28;20109;-72
2022/03/08 04:40:17;;;;;;;1.90;0.70;;;6.60;99.90;;;;;;4997133;28;20057;-73
2022/03/08 04:42:43;;;;;;;0.30;0.30;;;6.60;99.90;;;;;;4997208;28;20448;-72
2022/03/08 04:45:10;;;;;;;1.00;0.77;;;6.60;99.90;;;;;;4996897;28;20391;-72
2022/03/08 04:47:37;;;;;;;0.35;0.20;;;6.60;99.90;;;;;;4997168;28;20033;-72
2022/03/08 04:50:14;;;;;;;5.20;0.68;;;6.60;99.90;;;;;;4996747;28;20057;-72
2022/03/08 04:52:41;;;;;;;0.50;0.50;;;6.60;99.90;;;;;;4996827;28;20097;-72
2022/03/08 04:55:08;;;;;;;4.10;1.30;;;6.70;99.90;;;;;;4996790;28;20120;-71
2022/03/08 04:57:33;;;;;;;1.05;1.02;;;6.70;99.90;;;;;;4996835;28;20029;-73
2022/03/08 04:59:59;;;;;;;1.02;0.95;;;6.70;99.90;;;;;;4996818;28;20101;-72
2022/03/08 05:02:25;;;;;;;1.35;1.25;;;6.80;99.90;;;;;;4996688;28;20030;-73
2022/03/08 05:04:51;;;;;;;0.70;0.70;;;6.90;99.90;;;;;;4996088;28;20040;-71
2022/03/08 05:07:17;;;;;;;0.22;0.22;;;6.90;99.90;;;;;;5028499;28;20022;-73
2022/03/08 05:09:42;;;;;;;2.08;1.15;;;6.90;99.90;;;;;;4995607;28;20067;-73
2022/03/08 05:12:09;;;;;;;0.32;0.32;;;6.90;99.90;;;;;;4996678;28;20050;-72
2022/03/08 05:14:37;;;;;;;1.10;0.70;;;7.00;99.90;;;;;;4996901;28;20034;-73
2022/03/08 05:17:03;;;;;;;2.45;1.10;;;7.00;99.90;;;;;;4996013;28;20049;-72
2022/03/08 05:19:29;;;;;;;0.43;0.40;;;7.00;99.90;;;;;;4995374;28;20484;-73
2022/03/08 05:21:54;;;;;;;0.63;0.63;;;7.00;99.90;;;;;;4996419;28;20058;-74
2022/03/08 05:24:20;;;;;;;0.25;0.20;;;7.00;99.90;;;;;;4996108;28;20030;-73
2022/03/08 05:26:46;;;;;;;0.57;0.57;;;7.00;99.90;;;;;;4996708;28;20478;-72
2022/03/08 05:29:11;;;;;;;0.65;0.65;;;7.00;99.90;;;;;;4996469;28;20480;-72
2022/03/08 05:31:37;;;;;;;0.95;0.90;;;7.10;99.90;;;;;;4994842;28;20022;-75
2022/03/08 05:34:03;;;;;;;1.98;1.48;;;7.10;99.90;;;;;;4996649;28;20034;-73
2022/03/08 05:36:28;;;;;;;2.92;1.85;;;7.00;99.90;;;;;;4996282;28;20504;-74
2022/03/08 05:38:54;;;;;;;8.10;0.52;;;7.10;99.90;;;;;;4996347;28;20073;-72
2022/03/08 05:41:20;;;;;;;0.73;0.73;;;7.10;99.90;;;;;;4995467;28;20022;-72
2022/03/08 05:43:46;;;;;;;0.47;0.47;;;7.00;99.90;;;;;;4996198;28;20062;-73
2022/03/08 05:46:11;;;;;;;0.20;0.20;;;7.10;99.90;;;;;;4994722;28;20504;-74
2022/03/08 05:48:37;;;;;;;0.45;0.45;;;7.00;99.90;;;;;;4996224;28;20023;-74
2022/03/08 05:51:04;;;;;;;0.15;0.15;;;7.00;99.90;;;;;;4995661;28;20481;-72
2022/03/08 05:53:30;;;;;;;0.17;0.17;;;7.00;99.90;;;;;;4995389;28;20018;-73
2022/03/08 05:55:56;;;;;;;0.05;0.05;;;7.00;99.90;;;;;;4989110;28;20037;-73
2022/03/08 05:58:22;;;;;;;0.55;0.55;;;7.00;99.90;;;;;;4994522;28;20042;-74
2022/03/08 06:00:47;;;;;;;1.58;1.25;;;7.00;99.90;;;;;;4995610;28;20026;-72
2022/03/08 06:03:13;;;;;;;0.00;0.00;;;7.00;99.90;;;;;;4995845;28;20034;-72
2022/03/08 06:05:39;;;;;;;0.20;0.20;;;7.00;99.90;;;;;;4995207;28;20065;-74
2022/03/08 06:08:05;;;;;;;0.90;0.70;;;7.00;99.90;;;;;;4995230;28;20496;-73
2022/03/08 06:10:31;;;;;;;0.47;0.38;;;7.00;99.90;;;;;;4995349;28;20031;-74
2022/03/08 06:12:57;;;;;;;0.88;0.88;;;7.00;99.90;;;;;;4995458;28;20156;-74
2022/03/08 06:15:23;;;;;;;0.17;0.17;;;7.00;99.90;;;;;;4994549;28;20105;-71
2022/03/08 06:17:48;;;;;;;0.43;0.43;;;7.00;99.90;;;;;;4988285;28;20072;-73
2022/03/08 06:20:14;;;;;;;5.22;1.67;;;7.00;99.90;;;;;;4975866;28;20026;-74
2022/03/08 06:22:40;;;;;;;3.72;1.13;;;7.00;99.90;;;;;;4975963;28;20038;-74
2022/03/08 06:25:06;;;;;;;0.20;0.20;;;7.00;99.90;;;;;;4975745;28;20023;-74
2022/03/08 06:27:32;;;;;;;0.10;0.10;;;7.00;99.90;;;;;;4975585;28;20035;-74
2022/03/08 06:29:58;;;;;;;3.28;0.65;;;7.10;99.90;;;;;;4976337;28;20034;-71
2022/03/08 06:32:24;;;;;;;0.73;0.40;;;7.10;99.90;;;;;;4986245;28;20025;-73
2022/03/08 06:34:52;;;;;;;3.75;0.50;;;7.10;99.90;;;;;;4995059;28;20481;-74
2022/03/08 06:37:18;;;;;;;10.45;2.33;;;7.10;99.90;;;;;;4984909;28;20026;-71
2022/03/08 06:39:48;;;;;;;0.00;0.00;;;7.10;99.90;;;;;;4994244;28;20405;-70
2022/03/08 06:42:14;;;;;;;5.32;1.25;;;7.10;99.90;;;;;;4994437;28;20390;-74
2022/03/08 06:44:40;;;;;;;0.85;0.28;;;7.10;99.90;;;;;;4994383;28;20045;-74
2022/03/08 06:47:09;;;;;;;0.20;0.20;;;7.10;99.90;;;;;;4993046;28;20105;-73
2022/03/08 06:49:38;;;;;;;0.13;0.13;;;7.10;99.90;;;;;;4991392;28;20031;-72
2022/03/08 06:52:04;;;;;;;0.10;0.10;;;7.10;99.90;;;;;;4993885;28;20498;-74
2022/03/08 06:54:30;;;;;;;0.20;0.20;;;7.10;99.90;;;;;;4994204;28;20548;-72
2022/03/08 06:56:56;;;;;;;0.55;0.55;;;7.00;99.90;;;;;;4994219;28;20030;-74
2022/03/08 06:59:22;;;;;;;0.93;0.55;;;7.00;99.90;;;;;;4993185;28;20069;-73
2022/03/08 07:01:48;;;;;;;0.10;0.10;;;7.00;99.90;;;;;;4993915;28;20022;-74
2022/03/08 07:04:14;;;;;;;1.20;0.77;;;7.00;99.90;;;;;;4991754;28;20030;-73
2022/03/08 07:06:40;;;;;;;0.40;0.40;;;7.00;99.90;;;;;;4980637;28;20066;-72
2022/03/08 07:09:06;;;;;;;1.00;0.93;;;7.00;99.90;;;;;;4979444;28;20018;-73
2022/03/08 07:11:31;;;;;;;0.10;0.10;;;7.00;99.90;;;;;;4990652;28;20088;-73
2022/03/08 07:13:58;;;;;;;0.55;0.30;;;7.00;99.90;;;;;;4990587;28;20073;-73
2022/03/08 07:16:23;;;;;;;0.98;0.98;;;7.10;99.90;;;;;;4988450;28;20026;-73
2022/03/08 07:18:49;;;;;;;2.95;0.57;;;7.10;99.90;;;;;;4987044;28;20052;-74
2022/03/08 07:21:15;;;;;;;0.20;0.20;;;7.10;99.90;;;;;;4985956;28;20041;-72
2022/03/08 07:23:40;;;;;;;0.00;0.00;;;7.10;99.90;;;;;;4990763;28;20085;-73
2022/03/08 07:26:09;;;;;;;0.32;0.32;;;7.00;99.90;;;;;;4995805;28;20107;-73
2022/03/08 07:28:34;;;;;;;0.10;0.10;;;7.00;99.90;;;;;;4994287;28;20030;-72
2022/03/08 07:31:01;;;;;;;0.65;0.60;;;7.00;99.90;;;;;;4988178;28;20420;-72
2022/03/08 07:33:27;;;;;;;1.40;0.73;;;7.00;99.90;;;;;;4982770;28;20034;-73
2022/03/08 07:35:52;;;;;;;0.52;0.52;;;7.10;99.90;;;;;;4982381;28;20034;-72
2022/03/08 07:38:18;;;;;;;0.00;0.00;;;7.10;99.90;;;;;;4988889;28;20030;-72
2022/03/08 07:40:44;;;;;;;1.55;1.45;;;7.00;99.90;;;;;;4990595;28;20088;-74
2022/03/08 07:43:09;;;;;;;2.15;1.23;;;6.90;99.90;;;;;;4986254;28;20091;-71
2022/03/08 07:45:36;;;;;;;0.85;0.85;;;6.90;99.90;;;;;;4991216;28;20568;-72
2022/03/08 07:48:04;;;;;;;0.73;0.63;;;6.90;99.90;;;;;;4983078;28;20089;-71
2022/03/08 07:50:31;;;;;;;0.03;0.03;;;6.90;99.90;;;;;;4984175;28;20272;-73
2022/03/08 07:52:59;;;;;;;3.28;1.55;;;6.90;99.90;;;;;;5006223;28;20029;-73
2022/03/08 07:55:29;;;;;;;0.40;0.40;;;6.90;99.90;;;;;;4989654;28;20027;-73
2022/03/08 07:57:58;;;;;;;0.85;0.85;;;6.90;99.90;;;;;;4982931;28;20033;-73
2022/03/08 08:00:25;;;;;;;0.80;0.47;;;6.90;99.90;;;;;;4986856;28;20074;-75
2022/03/08 08:02:51;;;;;;;0.15;0.15;;;6.90;99.90;;;;;;4982915;28;20061;-77
2022/03/08 08:05:17;;;;;;;0.20;0.20;;;6.90;99.90;;;;;;4978376;28;20153;-75
2022/03/08 08:07:44;;;;;;;0.40;0.40;;;7.00;99.90;;;;;;4985409;28;20026;-75
2022/03/08 08:10:10;;;;;;;0.40;0.40;;;7.00;99.90;;;;;;4974344;28;20410;-75
2022/03/08 08:12:36;;;;;;;1.40;0.63;;;7.10;99.90;;;;;;4972361;28;20031;-75
2022/03/08 08:15:03;;;;;;;0.13;0.13;;;7.10;99.90;;;;;;4977218;28;20085;-76
2022/03/08 08:17:30;;;;;;;0.40;0.28;;;7.10;99.90;;;;;;4974288;28;20041;-75
2022/03/08 08:19:56;;;;;;;2.72;1.40;;;7.10;99.90;;;;;;4977494;28;20026;-73
2022/03/08 08:22:21;;;;;;;0.45;0.45;;;7.10;99.90;;;;;;5016595;28;20060;-74
2022/03/08 08:24:47;;;;;;;0.55;0.52;;;7.20;99.90;;;;;;4986278;28;20041;-73
2022/03/08 08:27:12;;;;;;;0.93;0.85;;;7.20;99.90;;;;;;4983848;28;20046;-73
2022/03/08 08:29:38;;;;;;;1.00;1.00;;;7.20;99.90;;;;;;4976542;28;20027;-76
2022/03/08 08:32:04;;;;;;;24.85;1.08;;;7.30;99.90;;;;;;4977946;28;20037;-72
2022/03/08 08:34:30;;;;;;;0.10;0.10;;;7.30;99.90;;;;;;4972324;28;20031;-72
2022/03/08 08:36:55;;;;;;;0.43;0.43;;;7.40;99.90;;;;;;4970901;28;20031;-73
2022/03/08 08:39:21;;;;;;;1.10;1.00;;;7.40;99.90;;;;;;4973565;28;20113;-73
2022/03/08 08:41:47;;;;;;;0.35;0.35;;;7.50;99.90;;;;;;5019495;28;20049;-74
2022/03/08 08:44:13;;;;;;;0.00;0.00;;;7.50;99.90;;;;;;4978152;28;20047;-74
2022/03/08 08:46:39;;;;;;;0.57;0.57;;;7.50;99.90;;;;;;4972074;28;20047;-72
2022/03/08 08:49:05;;;;;;;1.45;1.30;;;7.50;99.90;;;;;;4971761;28;20043;-74
2022/03/08 08:51:31;;;;;;;0.65;0.65;;;7.50;99.90;;;;;;4978548;28;20545;-73
2022/03/08 08:53:57;;;;;;;0.38;0.38;;;7.60;99.90;;;;;;4990509;28;20034;-74
2022/03/08 08:56:23;;;;;;;0.63;0.35;;;7.60;99.90;;;;;;4993482;28;20023;-72
2022/03/08 08:58:49;;;;;;;0.98;0.75;;;7.60;99.90;;;;;;4990085;28;20031;-74
2022/03/08 09:01:14;;;;;;;0.68;0.68;;;7.60;99.90;;;;;;4978443;28;20525;-73
2022/03/08 09:03:40;;;;;;;0.73;0.73;;;7.70;99.90;;;;;;4973940;28;20277;-73
2022/03/08 09:06:06;;;;;;;0.20;0.20;;;7.80;99.90;;;;;;4993875;28;20038;-73
2022/03/08 09:08:31;;;;;;;0.15;0.15;;;8.10;99.90;;;;;;4996000;28;20038;-73
2022/03/08 09:10:57;;;;;;;0.65;0.65;;;8.20;99.90;;;;;;4988395;28;20057;-74
2022/03/08 09:13:24;;;;;;;0.70;0.70;;;8.30;99.90;;;;;;4990522;28;20030;-74
2022/03/08 09:15:51;;;;;;;0.17;0.17;;;8.40;99.90;;;;;;4994494;28;20034;-72
2022/03/08 09:18:17;;;;;;;0.28;0.28;;;8.50;99.90;;;;;;5008038;28;20138;-73
2022/03/08 09:20:43;;;;;;;0.22;0.22;;;8.60;99.90;;;;;;4997702;28;20520;-73
2022/03/08 09:23:10;;;;;;;1.17;0.30;;;8.70;99.90;;;;;;4999701;28;20034;-74
2022/03/08 09:25:36;;;;;;;0.30;0.10;;;8.80;99.90;;;;;;4994171;28;20026;-71
2022/03/08 09:28:05;;;;;;;1.48;0.70;;;8.90;99.90;;;;;;5012335;28;20065;-72
2022/03/08 09:30:31;;;;;;;0.50;0.50;;;9.00;99.90;;;;;;5001163;28;20024;-73
2022/03/08 09:32:59;;;;;;;0.35;0.35;;;9.00;99.90;;;;;;4993234;28;20034;-75
2022/03/08 09:35:26;;;;;;;0.20;0.20;;;9.00;99.90;;;;;;4987534;28;20019;-72
2022/03/08 09:37:53;;;;;;;0.20;0.00;;;9.10;99.90;;;;;;4979368;28;20117;-73
2022/03/08 09:40:19;;;;;;;0.40;0.40;;;9.10;99.90;;;;;;4975473;28;20379;-73
2022/03/08 09:42:44;;;;;;;0.90;0.90;;;9.20;99.90;;;;;;4983836;28;20159;-71
2022/03/08 09:45:10;;;;;;;0.20;0.20;;;9.30;99.90;;;;;;4985943;28;20262;-73
2022/03/08 09:47:37;;;;;;;1.33;0.35;;;9.40;99.90;;;;;;4986920;28;20030;-74
2022/03/08 09:50:04;;;;;;;0.20;0.20;;;9.50;99.90;;;;;;4990723;28;20032;-74
2022/03/08 09:52:34;;;;;;;1.85;1.35;;;9.60;99.90;;;;;;4988173;28;20023;-73
2022/03/08 09:55:00;;;;;;;0.98;0.70;;;9.40;99.90;;;;;;4980956;28;20447;-72
2022/03/08 09:57:25;;;;;;;0.00;0.00;;;9.40;99.90;;;;;;4986330;28;20105;-73
2022/03/08 09:59:51;;;;;;;0.20;0.17;;;9.40;99.90;;;;;;4982397;28;20030;-72
2022/03/08 10:02:17;;;;;;;0.57;0.57;;;9.40;99.90;;;;;;4985915;28;20398;-71
2022/03/08 10:04:42;;;;;;;0.22;0.22;;;9.30;99.90;;;;;;4987126;28;20034;-74
2022/03/08 10:07:10;;;;;;;0.95;0.88;;;9.50;99.90;;;;;;4985944;28;20037;-74
2022/03/08 10:09:36;;;;;;;1.92;0.45;;;9.60;99.90;;;;;;4988840;28;20038;-72
2022/03/08 10:12:14;;;;;;;0.65;0.65;;;9.80;99.90;;;;;;4984986;28;20076;-74
2022/03/08 10:14:40;;;;;;;2.47;0.55;;;10.20;99.90;;;;;;4982945;28;20063;-73
2022/03/08 10:17:09;;;;;;;0.88;0.75;;;10.40;99.90;;;;;;4992534;28;20058;-72
2022/03/08 10:19:48;;;;;;;0.20;0.20;;;10.50;99.90;;;;;;4988132;28;20034;-72
2022/03/08 10:22:23;;;;;;;0.28;0.28;;;10.50;99.90;;;;;;4985043;28;20133;-70
2022/03/08 10:24:49;;;;;;;0.35;0.35;;;10.70;99.90;;;;;;4981297;28;20110;-71
2022/03/08 10:27:16;;;;;;;0.15;0.15;;;10.80;99.90;;;;;;4979362;28;20105;-72
2022/03/08 10:29:43;;;;;;;0.63;0.63;;;10.90;99.90;;;;;;4987734;28;20041;-74
2022/03/08 10:32:21;;;;;;;3.10;1.27;;;11.00;99.90;;;;;;4988993;28;20399;-73
2022/03/08 10:34:52;;;;;;;0.38;0.38;;;11.20;99.90;;;;;;4981165;28;20022;-72
2022/03/08 10:37:20;;;;;;;0.38;0.38;;;11.20;99.90;;;;;;4991740;28;20062;-78
2022/03/08 10:39:51;;;;;;;3.92;0.73;;;11.40;99.90;;;;;;4984782;28;20375;-73
2022/03/08 10:42:23;;;;;;;7.18;0.43;;;11.50;99.90;;;;;;4997248;28;20390;-76
2022/03/08 10:44:50;;;;;;;0.73;0.38;;;11.40;99.90;;;;;;4985053;28;20130;-73
2022/03/08 10:47:16;;;;;;;0.30;0.30;;;11.40;99.90;;;;;;4978622;28;20541;-72
2022/03/08 10:49:56;;;;;;;0.00;0.00;;;11.40;99.90;;;;;;4975684;28;20034;-74
2022/03/08 10:52:30;;;;;;;0.30;0.30;;;11.30;99.90;;;;;;4990712;28;20030;-75
2022/03/08 10:55:12;;;;;;;2.40;0.95;;;11.20;99.90;;;;;;4975322;28;20035;-73
2022/03/08 10:57:40;;;;;;;1.48;0.55;;;11.10;99.90;;;;;;4980837;28;20542;-75
2022/03/08 11:00:11;;;;;;;0.45;0.10;;;11.00;99.90;;;;;;4983531;28;20042;-74
2022/03/08 11:02:49;;;;;;;0.30;0.30;;;11.00;99.90;;;;;;4980833;28;20031;-74
2022/03/08 11:05:15;;;;;;;1.17;0.40;;;11.00;99.90;;;;;;4981853;28;20050;-76
2022/03/08 11:07:41;;;;;;;0.20;0.20;;;11.00;99.90;;;;;;4989102;28;20105;-76
2022/03/08 11:10:09;;;;;;;4.45;1.42;;;11.00;99.90;;;;;;4990798;28;20186;-76
2022/03/08 11:12:36;;;;;;;0.52;0.45;;;11.10;99.90;;;;;;4991334;28;20394;-73
2022/03/08 11:15:02;;;;;;;0.57;0.57;;;11.20;99.90;;;;;;4992665;28;20050;-73
2022/03/08 11:17:28;;;;;;;0.60;0.50;;;11.20;99.90;;;;;;4986267;28;20029;-71
2022/03/08 11:19:55;;;;;;;0.95;0.47;;;11.20;99.90;;;;;;4975658;28;20045;-73
2022/03/08 11:22:23;;;;;;;0.10;0.10;;;11.20;99.90;;;;;;4989480;28;20034;-73
2022/03/08 11:24:51;;;;;;;0.30;0.30;;;11.20;99.90;;;;;;4990159;28;20061;-72
2022/03/08 11:27:18;;;;;;;0.63;0.55;;;11.20;99.90;;;;;;4985154;28;20022;-73
2022/03/08 11:29:44;;;;;;;2.63;0.52;;;11.20;99.90;;;;;;4990325;28;20782;-73
2022/03/08 11:32:18;;;;;;;0.40;0.40;;;11.00;99.90;;;;;;4990298;28;20027;-73
2022/03/08 11:34:55;;;;;;;0.38;0.38;;;10.80;99.90;;;;;;4977933;28;20113;-72
2022/03/08 11:37:23;;;;;;;3.13;0.77;;;10.70;99.90;;;;;;4986583;28;20088;-73
2022/03/08 11:40:31;;;;;;;0.32;0.32;;;10.60;99.90;;;;;;4990756;28;20457;-74
2022/03/08 11:43:04;;;;;;;0.50;0.50;;;10.60;99.90;;;;;;4969814;28;20084;-73
2022/03/08 11:45:31;;;;;;;17.88;1.77;;;10.60;99.90;;;;;;4982686;28;20086;-73
2022/03/08 11:47:56;;;;;;;0.38;0.38;;;10.60;99.90;;;;;;4985365;28;20073;-72
2022/03/08 11:50:31;;;;;;;0.68;0.50;;;10.70;99.90;;;;;;4984265;28;20050;-72
2022/03/08 11:53:12;;;;;;;0.43;0.43;;;10.70;99.90;;;;;;4981060;28;20074;-71
2022/03/08 11:55:43;;;;;;;0.30;0.30;;;10.90;99.90;;;;;;4992880;28;20343;-73
2022/03/08 11:58:13;;;;;;;0.43;0.43;;;11.00;99.90;;;;;;4984836;28;20469;-71
2022/03/08 12:00:44;;;;;;;0.32;0.20;;;11.10;99.90;;;;;;4974698;28;20065;-71
2022/03/08 12:03:14;;;;;;;1.98;1.00;;;11.30;99.90;;;;;;4980413;28;20569;-73
2022/03/08 12:05:40;;;;;;;1.17;0.93;;;11.30;99.90;;;;;;4984575;28;20030;-72
2022/03/08 12:08:24;;;;;;;0.20;0.20;;;11.30;99.90;;;;;;4986930;28;20114;-72
2022/03/08 12:10:58;;;;;;;2.17;1.33;;;11.40;99.90;;;;;;4989017;28;20026;-72
2022/03/08 12:13:25;;;;;;;0.47;0.47;;;11.40;99.90;;;;;;4989759;28;20070;-72
2022/03/08 12:16:06;;;;;;;7.25;0.75;;;11.40;99.90;;;;;;4991759;28;20027;-72
2022/03/08 12:18:49;;;;;;;1.95;1.00;;;11.50;99.90;;;;;;4986193;28;20035;-72
2022/03/08 12:21:21;;;;;;;1.83;0.52;;;11.40;99.90;;;;;;4981750;28;20030;-73
2022/03/08 12:23:59;;;;;;;0.73;0.73;;;11.40;99.90;;;;;;4974867;28;20030;-72
2022/03/08 12:26:27;;;;;;;0.80;0.22;;;11.40;99.90;;;;;;4974589;28;20038;-72
2022/03/08 12:29:15;;;;;;;1.23;0.68;;;11.50;99.90;;;;;;4990631;28;20062;-73
2022/03/08 12:31:58;;;;;;;0.52;0.52;;;11.40;99.90;;;;;;4990618;28;20568;-72
2022/03/08 12:34:35;;;;;;;0.88;0.43;;;11.30;99.90;;;;;;4987274;28;20105;-73
2022/03/08 12:37:10;;;;;;;0.55;0.55;;;11.30;99.90;;;;;;4989277;28;20138;-72
2022/03/08 12:40:01;;;;;;;0.20;0.20;;;11.20;99.90;;;;;;4988877;28;20451;-72
2022/03/08 12:42:32;;;;;;;0.38;0.32;;;11.10;99.90;;;;;;4987670;28;20502;-72
2022/03/08 12:45:03;;;;;;;0.30;0.30;;;10.90;99.90;;;;;;4996361;28;20050;-72
2022/03/08 12:47:36;;;;;;;0.00;0.00;;;10.70;99.90;;;;;;4990904;28;20166;-72
2022/03/08 12:50:04;;;;;;;;;;;10.60;99.90;;;;;;4992146;28;20034;-72
2022/03/08 12:52:36;;;;;;;0.10;0.10;;;10.60;99.90;;;;;;5000093;28;19910;-72
2022/03/08 12:55:03;;;;;;;0.00;0.00;;;10.60;99.90;;;;;;4998052;28;20510;-71
2022/03/08 12:57:29;;;;;;;1.20;0.85;;;10.60;99.90;;;;;;4987895;28;20031;-72